createdAt,value
2018-12-18T00:01:29.324Z,13.47
2018-12-18T00:06:32.709Z,12.67
2018-12-18T00:11:36.027Z,10.53
2018-12-18T00:16:39.295Z,12.87
2018-12-18T00:21:42.560Z,9.67
2018-12-18T00:26:45.846Z,18.77
2018-12-18T00:31:49.305Z,12.03
2018-12-18T00:36:52.574Z,17.60
2018-12-18T00:41:57.271Z,7.83
2018-12-18T00:47:00.791Z,12.53
2018-12-18T00:52:04.071Z,11.25
2018-12-18T00:57:07.579Z,15.27
2018-12-18T01:02:11.047Z,10.60
2018-12-18T01:07:14.553Z,11.13
2018-12-18T01:12:17.822Z,11.93
2018-12-18T01:17:21.110Z,12.13
2018-12-18T01:22:24.451Z,14.03
2018-12-18T01:27:27.827Z,9.37
2018-12-18T01:32:31.110Z,14.30
2018-12-18T01:37:34.380Z,10.10
2018-12-18T01:42:37.783Z,13.27
2018-12-18T01:47:41.074Z,9.37
2018-12-18T01:52:44.432Z,10.43
2018-12-18T01:57:47.835Z,11.23
2018-12-18T02:02:51.100Z,12.27
2018-12-18T02:07:54.377Z,12.33
2018-12-18T02:12:57.690Z,9.40
2018-12-18T02:18:00.982Z,7.70
2018-12-18T02:23:04.243Z,11.70
2018-12-18T02:28:07.625Z,11.63
2018-12-18T02:33:10.908Z,9.27
2018-12-18T02:38:14.211Z,13.10
2018-12-18T02:43:17.477Z,11.67
2018-12-18T02:48:20.858Z,10.37
2018-12-18T02:53:24.355Z,11.93
2018-12-18T02:58:27.723Z,9.20
2018-12-18T03:03:31.234Z,12.10
2018-12-18T03:08:34.496Z,12.30
2018-12-18T03:13:37.528Z,15.87
2018-12-18T03:18:41.094Z,11.77
2018-12-18T03:23:44.410Z,10.23
2018-12-18T03:28:47.675Z,14.10
2018-12-18T03:33:51.161Z,11.50
2018-12-18T03:38:54.487Z,9.77
2018-12-18T03:43:57.960Z,10.80
2018-12-18T03:49:01.244Z,14.13
2018-12-18T03:54:04.523Z,10.90
2018-12-18T03:59:08.847Z,8.83
2018-12-18T04:04:12.120Z,15.57
2018-12-18T04:09:15.416Z,12.13
2018-12-18T04:14:18.892Z,9.00
2018-12-18T04:19:22.142Z,7.77
2018-12-18T04:24:25.427Z,14.03
2018-12-18T04:29:28.555Z,13.55
2018-12-18T04:34:31.885Z,8.97
2018-12-18T04:39:35.250Z,8.50
2018-12-18T04:44:38.532Z,10.00
2018-12-18T04:49:41.812Z,11.08
2018-12-18T04:54:45.134Z,9.97
2018-12-18T04:59:48.617Z,7.73
2018-12-18T05:04:51.967Z,10.07
2018-12-18T05:09:55.236Z,13.53
2018-12-18T05:14:58.664Z,14.40
2018-12-18T05:20:01.941Z,8.93
2018-12-18T05:25:05.528Z,7.63
2018-12-18T05:30:09.318Z,10.43
2018-12-18T05:35:12.765Z,7.70
2018-12-18T05:40:16.163Z,10.10
2018-12-18T05:45:19.426Z,11.17
2018-12-18T05:50:22.741Z,13.97
2018-12-18T05:55:25.751Z,9.80
2018-12-18T06:00:29.026Z,10.77
2018-12-18T06:05:32.296Z,11.73
2018-12-18T06:10:35.576Z,13.07
2018-12-18T06:15:38.993Z,15.07
2018-12-18T06:20:42.251Z,16.37
2018-12-18T06:25:45.529Z,14.50
2018-12-18T06:30:48.904Z,15.18
2018-12-18T06:35:52.201Z,16.63
2018-12-18T06:40:55.512Z,12.87
2018-12-18T06:45:58.834Z,14.37
2018-12-18T06:51:02.115Z,11.13
2018-12-18T06:56:05.456Z,14.73
2018-12-18T07:01:08.728Z,11.70
2018-12-18T07:06:12.009Z,16.40
2018-12-18T07:11:15.276Z,11.10
2018-12-18T07:16:18.583Z,11.93
2018-12-18T07:21:21.854Z,11.80
2018-12-18T07:26:25.456Z,8.30
2018-12-18T07:31:28.806Z,8.27
2018-12-18T07:36:32.120Z,7.17
2018-12-18T07:41:35.439Z,7.83
2018-12-18T07:46:38.727Z,11.23
2018-12-18T07:51:42.021Z,10.03
2018-12-18T07:56:45.354Z,12.37
2018-12-18T08:01:48.634Z,7.40
2018-12-18T08:06:51.901Z,12.60
2018-12-18T08:11:55.264Z,8.17
2018-12-18T08:16:58.582Z,11.40
2018-12-18T08:22:01.926Z,11.90
2018-12-18T08:27:05.330Z,12.10
2018-12-18T08:32:09.598Z,11.40
2018-12-18T08:37:12.073Z,9.90
2018-12-18T08:42:15.479Z,14.23
2018-12-18T08:47:18.864Z,17.00
2018-12-18T08:52:22.254Z,14.77
2018-12-18T08:57:25.549Z,14.27
2018-12-18T09:02:28.849Z,17.47
2018-12-18T09:07:32.122Z,10.10
2018-12-18T09:12:35.563Z,11.50
2018-12-18T09:17:44.352Z,15.07
2018-12-18T09:22:47.668Z,13.17
2018-12-18T09:27:50.983Z,13.03
2018-12-18T09:32:54.435Z,13.43
2018-12-18T09:38:03.229Z,18.30
2018-12-18T09:43:11.797Z,13.60
2018-12-18T09:48:15.067Z,14.03
2018-12-18T09:53:18.528Z,14.90
2018-12-18T09:58:21.948Z,11.47
2018-12-18T10:03:25.231Z,15.77
2018-12-18T10:08:28.694Z,17.90
2018-12-18T10:13:31.983Z,16.37
2018-12-18T10:18:35.325Z,12.57
2018-12-18T10:23:38.599Z,14.10
2018-12-18T10:28:41.935Z,10.70
2018-12-18T10:33:45.331Z,19.10
2018-12-18T10:38:48.606Z,14.80
2018-12-18T10:43:51.886Z,17.27
2018-12-18T10:48:55.147Z,18.03
2018-12-18T10:53:58.591Z,18.13
2018-12-18T10:59:01.983Z,9.45
2018-12-18T11:04:05.392Z,11.57
2018-12-18T11:09:09.624Z,11.80
2018-12-18T11:14:13.014Z,15.18
2018-12-18T11:19:16.347Z,17.57
2018-12-18T11:24:19.795Z,13.17
2018-12-18T11:29:23.179Z,18.30
2018-12-18T11:34:26.612Z,16.87
2018-12-18T11:39:29.998Z,9.17
2018-12-18T11:44:33.424Z,9.47
2018-12-18T11:49:36.832Z,13.17
2018-12-18T11:54:40.244Z,16.37
2018-12-18T11:59:43.679Z,12.23
2018-12-18T12:04:47.084Z,11.87
2018-12-18T12:09:50.414Z,15.23
2018-12-18T12:14:53.833Z,19.62
2018-12-18T12:19:58.281Z,14.67
2018-12-18T12:25:01.705Z,16.67
2018-12-18T12:30:06.065Z,8.90
2018-12-18T12:35:09.370Z,11.73
2018-12-18T12:40:12.712Z,17.80
2018-12-18T12:45:16.247Z,9.17
2018-12-18T12:50:19.559Z,15.05
2018-12-18T12:55:23.000Z,16.10
2018-12-18T13:00:26.367Z,8.43
2018-12-18T13:05:29.757Z,11.23
2018-12-18T13:10:33.046Z,10.47
2018-12-18T13:15:36.696Z,14.20
2018-12-18T13:20:42.099Z,14.83
2018-12-18T13:25:45.435Z,10.77
2018-12-18T13:30:48.737Z,7.17
2018-12-18T13:35:52.106Z,6.00
2018-12-18T13:40:55.623Z,8.13
2018-12-18T13:45:59.143Z,8.20
2018-12-18T13:51:02.604Z,5.73
2018-12-18T13:56:06.032Z,6.87
2018-12-18T14:01:09.455Z,3.60
2018-12-18T14:06:12.955Z,5.63
2018-12-18T14:11:16.443Z,6.53
2018-12-18T14:16:19.795Z,8.53
2018-12-18T14:21:23.268Z,8.20
2018-12-18T14:26:26.547Z,5.20
2018-12-18T14:31:29.916Z,7.80
2018-12-18T14:36:34.480Z,7.60
2018-12-18T14:41:37.854Z,6.70
2018-12-18T14:46:41.175Z,8.10
2018-12-18T14:51:44.595Z,7.43
2018-12-18T14:56:47.955Z,8.90
2018-12-18T15:01:51.358Z,6.60
2018-12-18T15:06:54.750Z,8.13
2018-12-18T15:11:58.147Z,6.47
2018-12-18T15:17:01.557Z,11.33
2018-12-18T15:22:05.027Z,7.95
2018-12-18T15:27:08.513Z,8.67
2018-12-18T15:32:11.903Z,7.40
2018-12-18T15:37:15.298Z,5.97
2018-12-18T15:42:18.686Z,5.27
2018-12-18T15:47:22.097Z,11.10
2018-12-18T15:52:25.459Z,6.77
2018-12-18T15:57:29.041Z,7.40
2018-12-18T16:02:32.515Z,8.90
2018-12-18T16:07:42.987Z,8.47
2018-12-18T16:12:46.547Z,5.70
2018-12-18T16:17:49.965Z,5.00
2018-12-18T16:22:53.528Z,8.40
2018-12-18T16:27:58.214Z,6.83
2018-12-18T16:33:01.611Z,9.27
2018-12-18T16:38:05.123Z,7.37
2018-12-18T16:43:08.554Z,6.40
2018-12-18T16:48:12.158Z,8.40
2018-12-18T16:53:15.673Z,4.47
2018-12-18T16:58:19.054Z,3.35
2018-12-18T17:03:22.527Z,8.07
2018-12-18T17:08:25.987Z,7.50
2018-12-18T17:13:30.407Z,2.47
2018-12-18T17:18:33.808Z,6.23
2018-12-18T17:23:37.296Z,5.30
2018-12-18T17:28:40.779Z,8.23
2018-12-18T17:33:44.222Z,8.60
2018-12-18T17:38:47.610Z,6.97
2018-12-18T17:43:51.046Z,4.70
2018-12-18T17:48:54.431Z,5.80
2018-12-18T17:53:57.888Z,5.93
2018-12-18T17:59:01.384Z,6.57
2018-12-18T18:04:04.771Z,8.20
2018-12-18T18:09:09.420Z,5.67
2018-12-18T18:14:12.923Z,5.77
2018-12-18T18:19:16.385Z,7.67
2018-12-18T18:24:19.916Z,7.93
2018-12-18T18:29:23.595Z,4.83
2018-12-18T18:34:27.151Z,3.80
2018-12-18T18:39:30.546Z,6.30
2018-12-18T18:44:34.074Z,5.27
2018-12-18T18:49:37.664Z,12.53
2018-12-18T18:54:41.100Z,5.37
2018-12-18T18:59:44.625Z,7.00
2018-12-18T19:04:48.173Z,4.97
2018-12-18T19:09:51.570Z,4.10
2018-12-18T19:14:55.131Z,8.43
2018-12-18T19:19:58.616Z,12.80
2018-12-18T19:25:02.480Z,12.03
2018-12-18T19:30:06.168Z,10.57
2018-12-18T19:35:09.923Z,12.43
2018-12-18T19:40:13.855Z,9.70
2018-12-18T19:45:18.006Z,7.00
2018-12-18T19:50:22.045Z,6.47
2018-12-18T19:55:26.453Z,7.33
2018-12-18T20:00:30.138Z,3.93
2018-12-18T20:05:34.063Z,10.77
2018-12-18T20:10:38.426Z,8.23
2018-12-18T20:15:42.082Z,7.63
2018-12-18T20:20:46.440Z,10.47
2018-12-18T20:25:50.518Z,5.97
2018-12-18T20:30:55.402Z,6.63
2018-12-18T20:35:59.202Z,8.30
2018-12-18T20:41:03.802Z,9.30
2018-12-18T20:46:07.929Z,5.20
2018-12-18T20:51:12.026Z,5.87
2018-12-18T20:56:15.705Z,6.37
2018-12-18T21:01:20.203Z,4.07
2018-12-18T21:06:24.646Z,3.50
2018-12-18T21:11:28.298Z,5.90
2018-12-18T21:16:32.230Z,6.33
2018-12-18T21:21:36.527Z,6.90
2018-12-18T21:26:41.406Z,7.50
2018-12-18T21:31:45.739Z,5.70
2018-12-18T21:36:49.534Z,5.20
2018-12-18T21:41:53.619Z,6.57
2018-12-18T21:46:57.761Z,3.60
2018-12-18T21:52:01.272Z,2.03
2018-12-18T21:57:04.859Z,4.90
2018-12-18T22:02:08.296Z,5.80
2018-12-18T22:07:11.848Z,3.33
2018-12-18T22:12:15.631Z,4.30
2018-12-18T22:17:20.719Z,0.93
2018-12-18T22:22:25.674Z,4.17
2018-12-18T22:27:30.296Z,8.73
2018-12-18T22:32:35.380Z,6.03
2018-12-18T22:37:40.330Z,8.43
2018-12-18T22:42:45.395Z,4.07
2018-12-18T22:47:49.500Z,5.57
2018-12-18T22:52:53.836Z,6.20
2018-12-18T22:57:57.595Z,4.67
2018-12-18T23:03:01.088Z,8.27
2018-12-18T23:08:04.690Z,5.07
2018-12-18T23:13:08.264Z,7.63
2018-12-18T23:18:11.871Z,4.80
2018-12-18T23:23:15.545Z,4.00
2018-12-18T23:28:18.992Z,5.87
2018-12-18T23:33:22.630Z,6.70
2018-12-18T23:38:26.243Z,5.37
2018-12-18T23:43:29.633Z,2.37
2018-12-18T23:48:32.919Z,4.37
2018-12-18T23:53:36.184Z,4.07
2018-12-18T23:58:39.479Z,8.13
